createdAt,value
2023-03-31T00:02:15.602Z,3.40
2023-03-31T00:07:22.404Z,4.90
2023-03-31T00:12:25.178Z,3.93
2023-03-31T00:17:27.801Z,4.17
2023-03-31T00:22:30.222Z,3.80
2023-03-31T00:27:32.844Z,4.37
2023-03-31T00:32:35.371Z,5.93
2023-03-31T00:37:37.900Z,4.90
2023-03-31T00:42:42.254Z,4.00
2023-03-31T00:47:50.264Z,3.50
2023-03-31T00:52:58.316Z,3.13
2023-03-31T00:58:02.381Z,3.13
2023-03-31T01:03:07.995Z,2.63
2023-03-31T01:08:11.173Z,5.30
2023-03-31T01:13:15.283Z,3.50
2023-03-31T01:18:22.204Z,3.67
2023-03-31T01:24:03.641Z,3.57
2023-03-31T01:29:06.014Z,3.53
2023-03-31T01:34:45.259Z,4.33
2023-03-31T01:39:47.802Z,3.80
2023-03-31T01:45:20.625Z,4.47
2023-03-31T01:50:28.679Z,2.40
2023-03-31T01:55:37.691Z,4.87
2023-03-31T02:00:44.175Z,4.13
2023-03-31T02:05:58.563Z,3.97
2023-03-31T02:11:01.314Z,7.00
2023-03-31T02:16:08.371Z,3.83
2023-03-31T02:21:12.633Z,4.03
2023-03-31T02:26:18.227Z,5.50
2023-03-31T02:31:29.030Z,3.47
2023-03-31T02:36:34.296Z,3.10
2023-03-31T02:41:37.179Z,3.13
2023-03-31T02:46:40.380Z,3.17
2023-03-31T02:51:48.918Z,2.57
2023-03-31T02:57:06.681Z,7.90
2023-03-31T03:02:11.375Z,5.13
2023-03-31T03:07:32.156Z,2.80
2023-03-31T03:12:59.666Z,3.67
2023-03-31T03:18:02.779Z,4.13
2023-03-31T03:23:05.318Z,4.53
2023-03-31T03:28:08.181Z,2.63
2023-03-31T03:33:11.440Z,2.20
2023-03-31T03:38:14.024Z,5.07
2023-03-31T03:43:16.530Z,9.90
2023-03-31T03:48:19.757Z,4.47
2023-03-31T03:53:22.302Z,3.87
2023-03-31T03:58:24.911Z,4.43
2023-03-31T04:03:27.697Z,5.17
2023-03-31T04:08:30.594Z,3.30
2023-03-31T04:13:33.163Z,4.47
2023-03-31T04:18:37.633Z,4.60
2023-03-31T04:23:47.092Z,5.37
2023-03-31T04:34:02.890Z,2.90
2023-03-31T04:39:11.284Z,3.87
2023-03-31T04:44:14.061Z,4.23
2023-03-31T04:49:16.817Z,6.07
2023-03-31T04:54:19.642Z,4.13
2023-03-31T04:59:22.221Z,3.47
2023-03-31T05:04:24.925Z,5.83
2023-03-31T05:09:27.549Z,6.60
2023-03-31T05:14:30.091Z,4.33
2023-03-31T05:19:32.854Z,5.07
2023-03-31T05:24:35.483Z,8.07
2023-03-31T05:29:37.976Z,11.50
2023-03-31T05:34:40.689Z,6.27
2023-03-31T05:39:43.486Z,5.47
2023-03-31T05:44:46.192Z,5.87
2023-03-31T05:49:48.684Z,4.83
2023-03-31T05:54:51.399Z,7.53
2023-03-31T05:59:53.942Z,4.70
2023-03-31T06:04:56.434Z,5.33
2023-03-31T06:09:58.936Z,4.80
2023-03-31T06:15:01.428Z,8.93
2023-03-31T06:20:19.780Z,5.67
2023-03-31T06:25:34.501Z,4.23
2023-03-31T06:30:43.320Z,4.93
2023-03-31T06:35:46.379Z,4.77
2023-03-31T06:40:48.893Z,4.03
2023-03-31T06:45:53.991Z,7.53
2023-03-31T06:51:00.411Z,5.13
2023-03-31T06:56:03.178Z,5.40
2023-03-31T07:01:06.595Z,3.93
2023-03-31T07:06:09.335Z,4.30
2023-03-31T07:11:12.133Z,3.63
2023-03-31T07:16:14.845Z,3.73
2023-03-31T07:21:17.239Z,6.73
2023-03-31T07:26:19.713Z,3.33
2023-03-31T07:31:22.304Z,5.30
2023-03-31T07:36:24.808Z,5.87
2023-03-31T07:41:27.291Z,4.20
2023-03-31T07:46:29.856Z,4.20
2023-03-31T07:51:32.251Z,6.80
2023-03-31T07:56:34.673Z,4.30
2023-03-31T08:01:37.178Z,5.20
2023-03-31T08:06:39.994Z,7.03
2023-03-31T08:11:46.016Z,4.50
2023-03-31T08:16:49.314Z,4.47
2023-03-31T08:21:52.707Z,5.13
2023-03-31T08:26:55.337Z,7.30
2023-03-31T08:31:57.934Z,6.23
2023-03-31T08:37:00.457Z,12.53
2023-03-31T08:42:13.945Z,6.33
2023-03-31T08:47:21.232Z,5.30
2023-03-31T08:52:32.396Z,7.00
2023-03-31T08:57:47.730Z,6.30
2023-03-31T09:03:00.996Z,5.97
2023-03-31T09:08:22.886Z,4.03
2023-03-31T09:14:02.676Z,4.50
2023-03-31T09:19:31.011Z,9.47
2023-03-31T09:24:37.525Z,5.67
2023-03-31T09:29:42.811Z,6.10
2023-03-31T09:34:46.846Z,5.40
2023-03-31T09:39:49.634Z,4.67
2023-03-31T09:44:52.135Z,6.37
2023-03-31T09:49:54.628Z,6.73
2023-03-31T09:55:01.563Z,8.50
2023-03-31T10:00:21.783Z,7.50
2023-03-31T10:05:36.888Z,3.47
2023-03-31T10:10:39.568Z,4.87
2023-03-31T10:15:42.512Z,6.43
2023-03-31T10:20:52.437Z,5.50
2023-03-31T10:25:55.238Z,3.53
2023-03-31T10:31:01.944Z,5.57
2023-03-31T10:36:27.106Z,6.43
2023-03-31T10:41:30.823Z,2.83
2023-03-31T10:47:15.688Z,6.97
2023-03-31T10:52:29.054Z,3.87
2023-03-31T10:57:56.962Z,9.90
2023-03-31T11:02:59.580Z,7.20
2023-03-31T11:08:28.456Z,7.80
2023-03-31T11:13:38.686Z,16.17
2023-03-31T11:18:59.897Z,9.03
2023-03-31T11:24:32.194Z,5.07
2023-03-31T11:29:50.062Z,6.97
2023-03-31T11:35:19.724Z,6.70
2023-03-31T11:40:52.576Z,8.90
2023-03-31T11:46:01.512Z,7.63
2023-03-31T11:51:07.177Z,7.50
2023-03-31T11:56:12.220Z,8.53
2023-03-31T12:01:36.341Z,6.73
2023-03-31T12:06:42.938Z,8.50
2023-03-31T12:12:03.439Z,7.30
2023-03-31T12:17:15.151Z,5.27
2023-03-31T12:22:34.858Z,6.33
2023-03-31T12:27:42.074Z,7.55
2023-03-31T12:32:47.774Z,7.17
2023-03-31T12:38:03.280Z,7.13
2023-03-31T12:43:16.751Z,5.53
2023-03-31T12:48:43.751Z,6.77
2023-03-31T12:54:04.495Z,9.10
2023-03-31T12:59:19.655Z,7.47
2023-03-31T13:04:22.767Z,9.83
2023-03-31T13:09:43.228Z,8.97
2023-03-31T13:14:48.627Z,8.07
2023-03-31T13:19:51.939Z,4.73
2023-03-31T13:24:54.666Z,5.47
2023-03-31T13:29:57.395Z,13.30
2023-03-31T13:35:08.065Z,8.03
2023-03-31T13:40:28.712Z,11.03
2023-03-31T13:45:51.103Z,13.30
2023-03-31T13:51:11.949Z,10.47
2023-03-31T13:56:27.348Z,10.23
2023-03-31T14:01:51.364Z,6.80
2023-03-31T14:07:03.027Z,7.67
2023-03-31T14:12:32.503Z,8.90
2023-03-31T14:17:38.293Z,8.73
2023-03-31T14:22:58.786Z,8.03
2023-03-31T14:28:23.947Z,7.60
2023-03-31T14:33:32.593Z,5.40
2023-03-31T14:38:35.274Z,9.87
2023-03-31T14:43:41.390Z,9.83
2023-03-31T14:48:48.127Z,5.77
2023-03-31T14:53:59.582Z,5.93
2023-03-31T14:59:02.310Z,8.70
2023-03-31T15:04:11.696Z,5.20
2023-03-31T15:09:34.808Z,8.53
2023-03-31T15:14:41.381Z,8.03
2023-03-31T15:19:43.792Z,8.30
2023-03-31T15:24:47.479Z,13.37
2023-03-31T15:29:57.771Z,13.10
2023-03-31T15:35:11.048Z,9.20
2023-03-31T15:40:44.395Z,11.83
2023-03-31T15:45:52.381Z,10.43
2023-03-31T15:51:06.294Z,11.50
2023-03-31T15:56:08.860Z,9.23
2023-03-31T16:01:16.015Z,7.97
2023-03-31T16:06:40.264Z,10.33
2023-03-31T16:11:50.459Z,12.17
2023-03-31T16:16:57.497Z,7.43
2023-03-31T16:22:02.437Z,9.73
2023-03-31T16:27:09.828Z,7.90
2023-03-31T16:32:21.320Z,5.70
2023-03-31T16:37:24.640Z,9.17
2023-03-31T16:42:32.187Z,7.57
2023-03-31T16:47:37.567Z,7.17
2023-03-31T16:52:41.486Z,8.17
2023-03-31T16:57:47.028Z,8.83
2023-03-31T17:02:51.466Z,6.50
2023-03-31T17:07:54.632Z,5.07
2023-03-31T17:12:57.368Z,8.50
2023-03-31T17:18:09.166Z,7.27
2023-03-31T17:23:12.316Z,14.13
2023-03-31T17:28:14.796Z,11.23
2023-03-31T17:33:17.702Z,14.97
2023-03-31T17:38:22.912Z,12.40
2023-03-31T17:43:25.498Z,14.10
2023-03-31T17:48:28.304Z,12.90
2023-03-31T17:53:34.496Z,13.93
2023-03-31T17:58:38.327Z,16.20
2023-03-31T18:03:45.323Z,16.00
2023-03-31T18:08:48.269Z,13.33
2023-03-31T18:13:51.490Z,16.37
2023-03-31T18:18:54.166Z,14.93
2023-03-31T18:23:56.696Z,17.07
2023-03-31T18:29:00.346Z,17.17
2023-03-31T18:34:02.976Z,16.40
2023-03-31T18:39:05.571Z,16.43
2023-03-31T18:44:08.805Z,14.27
2023-03-31T18:49:12.328Z,16.33
2023-03-31T18:54:14.964Z,15.67
2023-03-31T18:59:18.071Z,19.80
2023-03-31T19:04:20.896Z,16.13
2023-03-31T19:09:26.386Z,15.80
2023-03-31T19:14:29.122Z,15.93
2023-03-31T19:19:31.671Z,17.27
2023-03-31T19:24:34.134Z,13.93
2023-03-31T19:29:36.738Z,15.80
2023-03-31T19:34:39.216Z,20.73
2023-03-31T19:39:41.782Z,13.90
2023-03-31T19:44:45.403Z,20.47
2023-03-31T19:49:47.991Z,13.37
2023-03-31T19:54:50.731Z,18.30
2023-03-31T19:59:53.216Z,14.27
2023-03-31T20:04:56.170Z,12.30
2023-03-31T20:09:58.609Z,16.57
2023-03-31T20:15:01.124Z,11.77
2023-03-31T20:20:03.780Z,16.70
2023-03-31T20:25:06.916Z,16.17
2023-03-31T20:30:09.963Z,12.73
2023-03-31T20:35:12.997Z,15.00
2023-03-31T20:40:16.305Z,15.33
2023-03-31T20:45:18.793Z,12.20
2023-03-31T20:50:23.255Z,12.27
2023-03-31T20:55:25.794Z,13.90
2023-03-31T21:00:31.026Z,13.93
2023-03-31T21:05:33.782Z,19.27
2023-03-31T21:10:41.765Z,16.40
2023-03-31T21:15:49.139Z,12.57
2023-03-31T21:20:59.637Z,11.40
2023-03-31T21:26:03.776Z,13.27
2023-03-31T21:31:12.133Z,12.30
2023-03-31T21:36:17.008Z,11.17
2023-03-31T21:41:26.299Z,12.23
2023-03-31T21:46:30.715Z,14.82
2023-03-31T21:51:33.131Z,11.03
2023-03-31T21:56:35.626Z,12.07
2023-03-31T22:01:38.080Z,11.47
2023-03-31T22:06:40.657Z,11.67
2023-03-31T22:11:43.154Z,13.60
2023-03-31T22:16:45.510Z,12.73
2023-03-31T22:21:50.291Z,14.93
2023-03-31T22:26:52.701Z,10.63
2023-03-31T22:31:55.090Z,12.23
2023-03-31T22:36:57.812Z,12.20
2023-03-31T22:42:00.125Z,11.70
2023-03-31T22:47:03.550Z,11.77
2023-03-31T22:52:06.267Z,15.97
2023-03-31T22:57:08.901Z,12.83
2023-03-31T23:02:11.706Z,13.10
2023-03-31T23:07:15.978Z,16.83
2023-03-31T23:12:18.302Z,13.67
2023-03-31T23:17:21.069Z,15.80
2023-03-31T23:22:25.714Z,16.30
2023-03-31T23:27:28.037Z,13.47
2023-03-31T23:32:30.821Z,12.70
2023-03-31T23:37:33.145Z,14.97
2023-03-31T23:42:35.827Z,17.83
2023-03-31T23:47:41.037Z,16.83
2023-03-31T23:52:43.489Z,15.73
2023-03-31T23:57:46.039Z,14.93
